sensor_id;sensor_type;location;lat;lon;timestamp;pressure;altitude;pressure_sealevel;temperature;humidity
2339;BME280;1180;51.438;6.978;2023-07-08T00:00:14;100400.91;;;25.07;48.75
2339;BME280;1180;51.438;6.978;2023-07-08T00:02:43;100399.56;;;24.97;49.12
2339;BME280;1180;51.438;6.978;2023-07-08T00:05:11;100396.56;;;25.00;48.90
2339;BME280;1180;51.438;6.978;2023-07-08T00:07:38;100387.22;;;24.97;48.92
2339;BME280;1180;51.438;6.978;2023-07-08T00:12:42;100387.31;;;25.04;49.02
2339;BME280;1180;51.438;6.978;2023-07-08T00:15:08;100385.31;;;25.06;48.74
2339;BME280;1180;51.438;6.978;2023-07-08T00:17:34;100390.75;;;25.04;49.24
2339;BME280;1180;51.438;6.978;2023-07-08T00:20:00;100383.06;;;25.03;49.43
2339;BME280;1180;51.438;6.978;2023-07-08T00:22:26;100374.72;;;24.99;49.51
2339;BME280;1180;51.438;6.978;2023-07-08T00:24:51;100379.81;;;25.01;49.18
2339;BME280;1180;51.438;6.978;2023-07-08T00:27:17;100362.69;;;25.05;49.15
2339;BME280;1180;51.438;6.978;2023-07-08T00:29:43;100370.94;;;25.02;49.13
2339;BME280;1180;51.438;6.978;2023-07-08T00:32:14;100361.44;;;25.01;49.07
2339;BME280;1180;51.438;6.978;2023-07-08T00:34:40;100365.78;;;24.93;49.28
2339;BME280;1180;51.438;6.978;2023-07-08T00:37:10;100370.41;;;24.91;49.35
2339;BME280;1180;51.438;6.978;2023-07-08T00:39:36;100367.16;;;24.89;49.29
2339;BME280;1180;51.438;6.978;2023-07-08T00:42:25;100372.31;;;24.83;49.42
2339;BME280;1180;51.438;6.978;2023-07-08T00:44:51;100364.06;;;24.86;49.77
2339;BME280;1180;51.438;6.978;2023-07-08T00:47:17;100370.16;;;24.86;50.52
2339;BME280;1180;51.438;6.978;2023-07-08T00:49:56;100372.56;;;24.88;50.92
2339;BME280;1180;51.438;6.978;2023-07-08T00:52:26;100370.50;;;24.83;51.08
2339;BME280;1180;51.438;6.978;2023-07-08T00:54:59;100361.34;;;24.79;50.19
2339;BME280;1180;51.438;6.978;2023-07-08T00:57:31;100362.06;;;24.73;50.34
2339;BME280;1180;51.438;6.978;2023-07-08T01:00:10;100358.63;;;24.72;50.17
2339;BME280;1180;51.438;6.978;2023-07-08T01:02:48;100361.97;;;24.51;50.22
2339;BME280;1180;51.438;6.978;2023-07-08T01:05:22;100360.69;;;24.62;50.43
2339;BME280;1180;51.438;6.978;2023-07-08T01:07:58;100357.28;;;24.61;50.41
2339;BME280;1180;51.438;6.978;2023-07-08T01:10:34;100352.66;;;24.48;50.71
2339;BME280;1180;51.438;6.978;2023-07-08T01:13:04;100356.00;;;24.57;50.62
2339;BME280;1180;51.438;6.978;2023-07-08T01:15:37;100350.41;;;24.45;50.35
2339;BME280;1180;51.438;6.978;2023-07-08T01:18:05;100350.19;;;24.47;50.00
2339;BME280;1180;51.438;6.978;2023-07-08T01:20:32;100350.28;;;24.54;50.28
2339;BME280;1180;51.438;6.978;2023-07-08T01:22:57;100348.66;;;24.52;50.66
2339;BME280;1180;51.438;6.978;2023-07-08T01:25:23;100342.53;;;24.60;50.42
2339;BME280;1180;51.438;6.978;2023-07-08T01:27:53;100341.34;;;24.63;50.16
2339;BME280;1180;51.438;6.978;2023-07-08T01:30:19;100331.84;;;24.47;50.36
2339;BME280;1180;51.438;6.978;2023-07-08T01:32:49;100335.91;;;24.34;50.26
2339;BME280;1180;51.438;6.978;2023-07-08T01:35:16;100340.53;;;24.32;50.75
2339;BME280;1180;51.438;6.978;2023-07-08T01:37:46;100333.56;;;24.40;50.99
2339;BME280;1180;51.438;6.978;2023-07-08T01:42:42;100342.25;;;24.40;50.80
2339;BME280;1180;51.438;6.978;2023-07-08T01:45:12;100329.78;;;24.42;51.18
2339;BME280;1180;51.438;6.978;2023-07-08T01:47:40;100338.63;;;24.41;51.57
2339;BME280;1180;51.438;6.978;2023-07-08T01:50:09;100336.38;;;24.38;51.33
2339;BME280;1180;51.438;6.978;2023-07-08T01:52:36;100331.66;;;24.33;51.18
2339;BME280;1180;51.438;6.978;2023-07-08T01:55:03;100334.91;;;24.35;51.58
2339;BME280;1180;51.438;6.978;2023-07-08T01:57:29;100330.03;;;24.32;51.56
2339;BME280;1180;51.438;6.978;2023-07-08T01:59:54;100327.31;;;24.41;51.58
2339;BME280;1180;51.438;6.978;2023-07-08T02:02:20;100325.22;;;24.36;51.22
2339;BME280;1180;51.438;6.978;2023-07-08T02:04:48;100322.44;;;24.37;51.32
2339;BME280;1180;51.438;6.978;2023-07-08T02:07:14;100320.19;;;24.34;51.64
2339;BME280;1180;51.438;6.978;2023-07-08T02:09:39;100310.41;;;24.28;51.74
2339;BME280;1180;51.438;6.978;2023-07-08T02:12:06;100308.22;;;24.32;51.81
2339;BME280;1180;51.438;6.978;2023-07-08T02:14:33;100301.09;;;24.26;51.72
2339;BME280;1180;51.438;6.978;2023-07-08T02:16:59;100300.97;;;24.19;51.71
2339;BME280;1180;51.438;6.978;2023-07-08T02:19:25;100302.53;;;24.28;52.06
2339;BME280;1180;51.438;6.978;2023-07-08T02:21:51;100303.72;;;24.26;52.05
2339;BME280;1180;51.438;6.978;2023-07-08T02:24:20;100302.34;;;24.30;52.01
2339;BME280;1180;51.438;6.978;2023-07-08T02:26:48;100296.09;;;24.31;51.77
2339;BME280;1180;51.438;6.978;2023-07-08T02:29:14;100293.13;;;24.19;51.95
2339;BME280;1180;51.438;6.978;2023-07-08T02:31:40;100288.22;;;24.16;52.18
2339;BME280;1180;51.438;6.978;2023-07-08T02:34:06;100291.69;;;24.16;52.16
2339;BME280;1180;51.438;6.978;2023-07-08T02:36:33;100288.53;;;24.21;51.98
2339;BME280;1180;51.438;6.978;2023-07-08T02:39:00;100288.97;;;24.25;51.96
2339;BME280;1180;51.438;6.978;2023-07-08T02:41:26;100291.69;;;24.16;51.85
2339;BME280;1180;51.438;6.978;2023-07-08T02:43:52;100300.06;;;24.12;52.10
2339;BME280;1180;51.438;6.978;2023-07-08T02:46:18;100290.16;;;23.84;52.67
2339;BME280;1180;51.438;6.978;2023-07-08T02:48:44;100294.69;;;23.90;52.85
2339;BME280;1180;51.438;6.978;2023-07-08T02:51:10;100298.47;;;23.87;52.70
2339;BME280;1180;51.438;6.978;2023-07-08T02:53:36;100303.63;;;24.04;53.49
2339;BME280;1180;51.438;6.978;2023-07-08T02:56:05;100298.88;;;23.99;52.97
2339;BME280;1180;51.438;6.978;2023-07-08T02:58:31;100299.84;;;23.98;53.91
2339;BME280;1180;51.438;6.978;2023-07-08T03:00:57;100299.84;;;23.98;53.61
2339;BME280;1180;51.438;6.978;2023-07-08T03:03:27;100298.00;;;23.84;53.52
2339;BME280;1180;51.438;6.978;2023-07-08T03:06:00;100301.38;;;23.92;53.71
2339;BME280;1180;51.438;6.978;2023-07-08T03:08:27;100300.56;;;23.92;53.57
2339;BME280;1180;51.438;6.978;2023-07-08T03:11:01;100300.50;;;24.00;53.99
2339;BME280;1180;51.438;6.978;2023-07-08T03:13:27;100298.69;;;24.01;53.40
2339;BME280;1180;51.438;6.978;2023-07-08T03:15:54;100296.59;;;23.96;53.57
2339;BME280;1180;51.438;6.978;2023-07-08T03:18:23;100301.38;;;23.92;53.53
2339;BME280;1180;51.438;6.978;2023-07-08T03:20:50;100297.41;;;23.97;53.67
2339;BME280;1180;51.438;6.978;2023-07-08T03:23:15;100291.59;;;23.86;53.77
2339;BME280;1180;51.438;6.978;2023-07-08T03:25:41;100296.50;;;23.89;53.96
2339;BME280;1180;51.438;6.978;2023-07-08T03:28:08;100288.50;;;23.83;54.09
2339;BME280;1180;51.438;6.978;2023-07-08T03:30:41;100286.25;;;23.79;54.42
2339;BME280;1180;51.438;6.978;2023-07-08T03:33:07;100282.63;;;23.80;54.10
2339;BME280;1180;51.438;6.978;2023-07-08T03:35:34;100283.63;;;23.79;54.38
2339;BME280;1180;51.438;6.978;2023-07-08T03:38:01;100273.97;;;23.80;54.80
2339;BME280;1180;51.438;6.978;2023-07-08T03:40:26;100283.63;;;23.79;54.56
2339;BME280;1180;51.438;6.978;2023-07-08T03:42:53;100280.81;;;23.66;54.78
2339;BME280;1180;51.438;6.978;2023-07-08T03:45:19;100280.19;;;23.64;54.08
2339;BME280;1180;51.438;6.978;2023-07-08T03:47:45;100287.31;;;23.70;54.22
2339;BME280;1180;51.438;6.978;2023-07-08T03:50:18;100284.22;;;23.66;54.39
2339;BME280;1180;51.438;6.978;2023-07-08T03:52:45;100301.06;;;23.72;54.35
2339;BME280;1180;51.438;6.978;2023-07-08T03:55:12;100298.19;;;23.82;54.52
2339;BME280;1180;51.438;6.978;2023-07-08T03:57:39;100298.84;;;23.84;54.01
2339;BME280;1180;51.438;6.978;2023-07-08T04:00:06;100288.72;;;23.81;53.80
2339;BME280;1180;51.438;6.978;2023-07-08T04:02:39;100296.94;;;23.78;54.56
2339;BME280;1180;51.438;6.978;2023-07-08T04:05:05;100296.94;;;23.78;54.90
2339;BME280;1180;51.438;6.978;2023-07-08T04:07:34;100297.28;;;23.75;54.72
2339;BME280;1180;51.438;6.978;2023-07-08T04:10:00;100297.72;;;23.78;55.02
2339;BME280;1180;51.438;6.978;2023-07-08T04:12:27;100296.66;;;23.49;54.71
2339;BME280;1180;51.438;6.978;2023-07-08T04:14:54;100298.91;;;23.29;55.92
2339;BME280;1180;51.438;6.978;2023-07-08T04:17:20;100313.34;;;23.48;55.55
2339;BME280;1180;51.438;6.978;2023-07-08T04:19:49;100313.03;;;23.66;55.85
2339;BME280;1180;51.438;6.978;2023-07-08T04:22:14;100312.81;;;23.76;55.67
2339;BME280;1180;51.438;6.978;2023-07-08T04:24:40;100319.09;;;23.90;55.39
2339;BME280;1180;51.438;6.978;2023-07-08T04:27:12;100319.09;;;23.90;55.52
2339;BME280;1180;51.438;6.978;2023-07-08T04:29:39;100318.22;;;23.98;56.09
2339;BME280;1180;51.438;6.978;2023-07-08T04:32:07;100321.78;;;24.05;56.05
2339;BME280;1180;51.438;6.978;2023-07-08T04:34:33;100318.00;;;24.00;54.12
2339;BME280;1180;51.438;6.978;2023-07-08T04:36:59;100321.72;;;23.90;54.69
2339;BME280;1180;51.438;6.978;2023-07-08T04:39:25;100318.81;;;23.85;55.73
2339;BME280;1180;51.438;6.978;2023-07-08T04:41:51;100326.44;;;23.95;56.09
2339;BME280;1180;51.438;6.978;2023-07-08T04:44:16;100329.69;;;23.97;56.54
2339;BME280;1180;51.438;6.978;2023-07-08T04:46:49;100327.88;;;23.98;55.51
2339;BME280;1180;51.438;6.978;2023-07-08T04:49:17;100329.84;;;23.95;55.73
2339;BME280;1180;51.438;6.978;2023-07-08T04:51:43;100327.22;;;23.95;56.59
2339;BME280;1180;51.438;6.978;2023-07-08T04:54:11;100320.72;;;23.91;57.25
2339;BME280;1180;51.438;6.978;2023-07-08T04:56:45;100324.16;;;23.92;56.75
2339;BME280;1180;51.438;6.978;2023-07-08T04:59:15;100328.78;;;23.90;57.09
2339;BME280;1180;51.438;6.978;2023-07-08T05:01:41;100325.69;;;23.86;57.13
2339;BME280;1180;51.438;6.978;2023-07-08T05:04:09;100325.16;;;23.91;58.44
2339;BME280;1180;51.438;6.978;2023-07-08T05:06:35;100324.16;;;23.92;58.23
2339;BME280;1180;51.438;6.978;2023-07-08T05:09:01;100319.00;;;23.99;58.27
2339;BME280;1180;51.438;6.978;2023-07-08T05:11:28;100319.97;;;24.06;58.22
2339;BME280;1180;51.438;6.978;2023-07-08T05:13:55;100314.94;;;23.96;57.49
2339;BME280;1180;51.438;6.978;2023-07-08T05:16:20;100309.88;;;23.94;58.54
2339;BME280;1180;51.438;6.978;2023-07-08T05:18:46;100316.06;;;24.02;58.01
2339;BME280;1180;51.438;6.978;2023-07-08T05:21:12;100314.25;;;24.02;58.21
2339;BME280;1180;51.438;6.978;2023-07-08T05:23:38;100317.78;;;24.09;58.28
2339;BME280;1180;51.438;6.978;2023-07-08T05:26:05;100323.88;;;24.10;56.71
2339;BME280;1180;51.438;6.978;2023-07-08T05:28:32;100318.91;;;24.15;56.20
2339;BME280;1180;51.438;6.978;2023-07-08T05:30:58;100322.03;;;24.11;56.39
2339;BME280;1180;51.438;6.978;2023-07-08T05:33:26;100318.44;;;24.12;55.82
2339;BME280;1180;51.438;6.978;2023-07-08T05:35:53;100315.09;;;24.18;56.09
2339;BME280;1180;51.438;6.978;2023-07-08T05:38:19;100322.88;;;24.26;56.07
2339;BME280;1180;51.438;6.978;2023-07-08T05:40:49;100321.44;;;24.23;57.48
2339;BME280;1180;51.438;6.978;2023-07-08T05:43:16;100318.56;;;24.33;57.18
2339;BME280;1180;51.438;6.978;2023-07-08T05:45:42;100318.56;;;24.33;56.93
2339;BME280;1180;51.438;6.978;2023-07-08T05:48:07;100322.16;;;24.32;56.41
2339;BME280;1180;51.438;6.978;2023-07-08T05:50:33;100316.81;;;24.41;56.77
2339;BME280;1180;51.438;6.978;2023-07-08T05:52:58;100316.72;;;24.34;55.98
2339;BME280;1180;51.438;6.978;2023-07-08T05:55:25;100312.94;;;24.36;55.76
2339;BME280;1180;51.438;6.978;2023-07-08T05:57:51;100316.94;;;24.47;55.48
2339;BME280;1180;51.438;6.978;2023-07-08T06:00:17;100318.03;;;24.53;55.01
2339;BME280;1180;51.438;6.978;2023-07-08T06:02:43;100318.09;;;24.45;55.16
2339;BME280;1180;51.438;6.978;2023-07-08T06:05:08;100317.03;;;24.39;54.50
2339;BME280;1180;51.438;6.978;2023-07-08T06:07:34;100315.56;;;24.51;53.98
2339;BME280;1180;51.438;6.978;2023-07-08T06:10:00;100325.16;;;24.59;54.36
2339;BME280;1180;51.438;6.978;2023-07-08T06:12:26;100319.06;;;24.74;53.31
2339;BME280;1180;51.438;6.978;2023-07-08T06:14:52;100313.56;;;24.84;53.68
2339;BME280;1180;51.438;6.978;2023-07-08T06:17:18;100317.38;;;24.81;54.07
2339;BME280;1180;51.438;6.978;2023-07-08T06:19:44;100311.50;;;24.79;54.42
2339;BME280;1180;51.438;6.978;2023-07-08T06:22:10;100312.94;;;24.82;53.53
2339;BME280;1180;51.438;6.978;2023-07-08T06:24:36;100302.81;;;24.78;54.97
2339;BME280;1180;51.438;6.978;2023-07-08T06:27:01;100307.22;;;24.93;54.87
2339;BME280;1180;51.438;6.978;2023-07-08T06:29:27;100308.91;;;25.01;53.33
2339;BME280;1180;51.438;6.978;2023-07-08T06:31:53;100318.72;;;24.77;53.27
2339;BME280;1180;51.438;6.978;2023-07-08T06:34:19;100324.50;;;24.72;54.57
2339;BME280;1180;51.438;6.978;2023-07-08T06:36:48;100325.22;;;24.96;54.18
2339;BME280;1180;51.438;6.978;2023-07-08T06:39:13;100334.66;;;24.90;54.09
2339;BME280;1180;51.438;6.978;2023-07-08T06:41:39;100332.63;;;25.07;53.56
2339;BME280;1180;51.438;6.978;2023-07-08T06:44:05;100336.66;;;25.25;52.54
2339;BME280;1180;51.438;6.978;2023-07-08T06:46:30;100337.47;;;25.26;52.32
2339;BME280;1180;51.438;6.978;2023-07-08T06:48:56;100335.72;;;25.33;53.07
2339;BME280;1180;51.438;6.978;2023-07-08T06:51:22;100331.25;;;25.33;51.90
2339;BME280;1180;51.438;6.978;2023-07-08T06:53:49;100332.47;;;25.31;52.31
2339;BME280;1180;51.438;6.978;2023-07-08T06:56:14;100324.28;;;25.41;52.96
2339;BME280;1180;51.438;6.978;2023-07-08T06:58:40;100320.00;;;25.55;52.66
2339;BME280;1180;51.438;6.978;2023-07-08T07:01:06;100323.75;;;25.67;51.87
2339;BME280;1180;51.438;6.978;2023-07-08T07:03:32;100321.59;;;25.77;51.80
2339;BME280;1180;51.438;6.978;2023-07-08T07:05:57;100318.84;;;25.86;51.05
2339;BME280;1180;51.438;6.978;2023-07-08T07:08:23;100317.84;;;25.87;51.95
2339;BME280;1180;51.438;6.978;2023-07-08T07:10:49;100311.66;;;26.01;51.08
2339;BME280;1180;51.438;6.978;2023-07-08T07:13:15;100307.19;;;25.95;50.90
2339;BME280;1180;51.438;6.978;2023-07-08T07:15:40;100308.97;;;25.94;50.99
2339;BME280;1180;51.438;6.978;2023-07-08T07:18:06;100308.00;;;26.24;50.08
2339;BME280;1180;51.438;6.978;2023-07-08T07:20:33;100305.94;;;26.19;50.35
2339;BME280;1180;51.438;6.978;2023-07-08T07:22:59;100301.13;;;26.23;50.46
2339;BME280;1180;51.438;6.978;2023-07-08T07:25:25;100294.16;;;26.15;50.33
2339;BME280;1180;51.438;6.978;2023-07-08T07:27:51;100305.88;;;26.41;49.58
2339;BME280;1180;51.438;6.978;2023-07-08T07:30:17;100303.34;;;26.61;50.12
2339;BME280;1180;51.438;6.978;2023-07-08T07:32:44;100299.72;;;26.69;49.51
2339;BME280;1180;51.438;6.978;2023-07-08T07:35:12;100321.00;;;26.74;49.74
2339;BME280;1180;51.438;6.978;2023-07-08T07:37:39;100304.47;;;26.87;48.56
2339;BME280;1180;51.438;6.978;2023-07-08T07:40:12;100316.03;;;26.93;48.29
2339;BME280;1180;51.438;6.978;2023-07-08T07:42:41;100318.69;;;27.13;48.23
2339;BME280;1180;51.438;6.978;2023-07-08T07:45:07;100321.56;;;27.18;47.92
2339;BME280;1180;51.438;6.978;2023-07-08T07:47:34;100323.41;;;27.24;48.40
2339;BME280;1180;51.438;6.978;2023-07-08T07:50:00;100330.31;;;27.39;48.11
2339;BME280;1180;51.438;6.978;2023-07-08T07:52:26;100336.19;;;27.41;48.27
2339;BME280;1180;51.438;6.978;2023-07-08T07:54:52;100329.97;;;27.56;47.26
2339;BME280;1180;51.438;6.978;2023-07-08T07:57:19;100323.41;;;27.24;47.74
2339;BME280;1180;51.438;6.978;2023-07-08T07:59:46;100324.00;;;27.27;48.55
2339;BME280;1180;51.438;6.978;2023-07-08T08:02:11;100323.00;;;27.41;48.51
2339;BME280;1180;51.438;6.978;2023-07-08T08:04:37;100334.63;;;27.67;47.71
2339;BME280;1180;51.438;6.978;2023-07-08T08:07:04;100323.47;;;27.85;47.59
2339;BME280;1180;51.438;6.978;2023-07-08T08:09:29;100317.38;;;27.98;46.84
2339;BME280;1180;51.438;6.978;2023-07-08T08:11:55;100328.94;;;28.04;47.11
2339;BME280;1180;51.438;6.978;2023-07-08T08:14:22;100327.13;;;27.84;47.90
2339;BME280;1180;51.438;6.978;2023-07-08T08:16:48;100332.59;;;27.96;46.38
2339;BME280;1180;51.438;6.978;2023-07-08T08:19:14;100337.44;;;28.13;46.63
2339;BME280;1180;51.438;6.978;2023-07-08T08:21:39;100324.66;;;28.23;46.50
2339;BME280;1180;51.438;6.978;2023-07-08T08:24:05;100323.84;;;28.29;46.08
2339;BME280;1180;51.438;6.978;2023-07-08T08:26:31;100322.81;;;28.30;45.68
2339;BME280;1180;51.438;6.978;2023-07-08T08:28:57;100327.84;;;28.52;45.13
2339;BME280;1180;51.438;6.978;2023-07-08T08:31:23;100324.56;;;28.57;45.46
2339;BME280;1180;51.438;6.978;2023-07-08T08:33:50;100323.78;;;28.49;45.02
2339;BME280;1180;51.438;6.978;2023-07-08T08:36:16;100332.88;;;28.60;45.58
2339;BME280;1180;51.438;6.978;2023-07-08T08:38:42;100332.47;;;28.57;44.97
2339;BME280;1180;51.438;6.978;2023-07-08T08:41:30;100333.03;;;28.79;44.07
2339;BME280;1180;51.438;6.978;2023-07-08T08:43:56;100330.91;;;29.01;43.88
2339;BME280;1180;51.438;6.978;2023-07-08T08:46:47;100333.50;;;29.08;42.52
2339;BME280;1180;51.438;6.978;2023-07-08T08:51:47;100333.78;;;29.25;40.00
2339;BME280;1180;51.438;6.978;2023-07-08T08:54:13;100336.78;;;29.35;39.79
2339;BME280;1180;51.438;6.978;2023-07-08T08:59:53;100340.63;;;29.39;39.73
2339;BME280;1180;51.438;6.978;2023-07-08T09:02:36;100344.44;;;29.50;40.62
2339;BME280;1180;51.438;6.978;2023-07-08T09:05:08;100336.69;;;29.56;39.43
2339;BME280;1180;51.438;6.978;2023-07-08T09:08:05;100349.38;;;29.65;39.14
2339;BME280;1180;51.438;6.978;2023-07-08T09:10:57;100354.78;;;29.77;38.26
2339;BME280;1180;51.438;6.978;2023-07-08T09:13:42;100352.94;;;29.85;38.31
2339;BME280;1180;51.438;6.978;2023-07-08T09:19:24;100348.47;;;29.78;38.73
2339;BME280;1180;51.438;6.978;2023-07-08T09:24:29;100337.06;;;29.85;37.80
2339;BME280;1180;51.438;6.978;2023-07-08T09:26:58;100333.88;;;30.01;38.21
2339;BME280;1180;51.438;6.978;2023-07-08T09:29:26;100336.22;;;30.09;38.28
2339;BME280;1180;51.438;6.978;2023-07-08T09:31:52;100333.38;;;30.11;38.04
2339;BME280;1180;51.438;6.978;2023-07-08T09:34:22;100335.94;;;30.18;38.68
2339;BME280;1180;51.438;6.978;2023-07-08T09:36:49;100342.47;;;30.15;38.86
2339;BME280;1180;51.438;6.978;2023-07-08T09:39:18;100343.81;;;30.24;38.28
2339;BME280;1180;51.438;6.978;2023-07-08T09:41:47;100343.94;;;30.30;38.76
2339;BME280;1180;51.438;6.978;2023-07-08T09:44:17;100341.75;;;30.45;37.97
2339;BME280;1180;51.438;6.978;2023-07-08T09:46:44;100342.72;;;30.51;38.72
2339;BME280;1180;51.438;6.978;2023-07-08T09:51:45;100344.84;;;30.61;37.66
2339;BME280;1180;51.438;6.978;2023-07-08T09:54:12;100346.72;;;30.60;37.48
2339;BME280;1180;51.438;6.978;2023-07-08T09:56:52;100346.78;;;30.72;38.10
2339;BME280;1180;51.438;6.978;2023-07-08T09:59:22;100348.53;;;30.78;38.33
2339;BME280;1180;51.438;6.978;2023-07-08T10:01:49;100349.69;;;30.82;37.52
2339;BME280;1180;51.438;6.978;2023-07-08T10:04:18;100349.03;;;30.87;36.71
2339;BME280;1180;51.438;6.978;2023-07-08T10:06:45;100351.31;;;30.83;37.63
2339;BME280;1180;51.438;6.978;2023-07-08T10:09:19;100347.44;;;30.98;37.11
2339;BME280;1180;51.438;6.978;2023-07-08T10:11:58;100343.22;;;31.09;37.35
2339;BME280;1180;51.438;6.978;2023-07-08T10:14:48;100339.78;;;31.08;37.64
2339;BME280;1180;51.438;6.978;2023-07-08T10:17:19;100343.53;;;31.19;37.26
2339;BME280;1180;51.438;6.978;2023-07-08T10:19:45;100348.50;;;31.27;36.58
2339;BME280;1180;51.438;6.978;2023-07-08T10:31:02;100332.63;;;31.39;37.44
2339;BME280;1180;51.438;6.978;2023-07-08T10:42:07;100320.19;;;31.64;36.08
2339;BME280;1180;51.438;6.978;2023-07-08T10:51:02;100319.75;;;31.91;35.88
2339;BME280;1180;51.438;6.978;2023-07-08T10:53:32;100318.59;;;31.87;36.03
2339;BME280;1180;51.438;6.978;2023-07-08T10:56:23;100323.44;;;32.02;36.40
2339;BME280;1180;51.438;6.978;2023-07-08T10:59:14;100316.84;;;32.04;35.43
2339;BME280;1180;51.438;6.978;2023-07-08T11:01:59;100303.78;;;32.15;35.95
2339;BME280;1180;51.438;6.978;2023-07-08T11:07:32;100305.72;;;32.31;34.85
2339;BME280;1180;51.438;6.978;2023-07-08T11:10:05;100305.28;;;32.34;34.98
2339;BME280;1180;51.438;6.978;2023-07-08T11:15:15;100307.88;;;32.58;34.69
2339;BME280;1180;51.438;6.978;2023-07-08T11:18:07;100306.56;;;32.61;34.42
2339;BME280;1180;51.438;6.978;2023-07-08T11:23:38;100300.13;;;32.56;34.29
2339;BME280;1180;51.438;6.978;2023-07-08T11:26:28;100301.06;;;32.79;34.53
2339;BME280;1180;51.438;6.978;2023-07-08T11:29:00;100298.47;;;32.96;33.70
2339;BME280;1180;51.438;6.978;2023-07-08T11:31:30;100296.41;;;32.87;33.67
2339;BME280;1180;51.438;6.978;2023-07-08T11:33:57;100300.25;;;33.08;34.02
2339;BME280;1180;51.438;6.978;2023-07-08T11:36:24;100297.44;;;33.15;33.71
2339;BME280;1180;51.438;6.978;2023-07-08T11:38:54;100300.50;;;33.06;33.61
2339;BME280;1180;51.438;6.978;2023-07-08T11:41:26;100295.66;;;33.03;33.26
2339;BME280;1180;51.438;6.978;2023-07-08T11:43:59;100293.41;;;33.29;33.40
2339;BME280;1180;51.438;6.978;2023-07-08T11:46:30;100290.59;;;33.36;33.14
2339;BME280;1180;51.438;6.978;2023-07-08T11:49:09;100284.38;;;33.30;33.36
2339;BME280;1180;51.438;6.978;2023-07-08T11:51:40;100285.69;;;33.27;32.63
2339;BME280;1180;51.438;6.978;2023-07-08T11:54:34;100280.94;;;33.30;33.80
2339;BME280;1180;51.438;6.978;2023-07-08T11:57:14;100287.53;;;33.44;34.57
2339;BME280;1180;51.438;6.978;2023-07-08T11:59:42;100282.78;;;33.46;33.20
2339;BME280;1180;51.438;6.978;2023-07-08T12:02:19;100285.25;;;33.36;32.20
2339;BME280;1180;51.438;6.978;2023-07-08T12:05:01;100279.06;;;33.47;32.20
2339;BME280;1180;51.438;6.978;2023-07-08T12:07:33;100275.16;;;33.72;32.70
2339;BME280;1180;51.438;6.978;2023-07-08T12:10:17;100276.47;;;33.69;32.26
2339;BME280;1180;51.438;6.978;2023-07-08T12:12:45;100275.09;;;33.67;32.73
2339;BME280;1180;51.438;6.978;2023-07-08T12:15:31;100269.06;;;33.72;32.57
2339;BME280;1180;51.438;6.978;2023-07-08T12:20:37;100267.19;;;33.72;31.28
2339;BME280;1180;51.438;6.978;2023-07-08T12:23:21;100270.28;;;33.86;31.22
2339;BME280;1180;51.438;6.978;2023-07-08T12:25:48;100270.81;;;34.05;32.99
2339;BME280;1180;51.438;6.978;2023-07-08T12:28:14;100267.94;;;34.07;32.44
2339;BME280;1180;51.438;6.978;2023-07-08T12:30:42;100269.50;;;34.30;32.63
2339;BME280;1180;51.438;6.978;2023-07-08T12:33:11;100258.84;;;34.30;30.21
2339;BME280;1180;51.438;6.978;2023-07-08T12:35:40;100261.38;;;34.15;31.59
2339;BME280;1180;51.438;6.978;2023-07-08T12:40:41;100264.50;;;34.34;31.63
2339;BME280;1180;51.438;6.978;2023-07-08T12:43:09;100247.88;;;34.26;31.25
2339;BME280;1180;51.438;6.978;2023-07-08T12:45:36;100250.41;;;34.11;31.41
2339;BME280;1180;51.438;6.978;2023-07-08T12:48:02;100247.53;;;33.95;30.96
2339;BME280;1180;51.438;6.978;2023-07-08T12:50:28;100247.16;;;34.31;31.94
2339;BME280;1180;51.438;6.978;2023-07-08T12:52:54;100249.94;;;34.19;31.63
2339;BME280;1180;51.438;6.978;2023-07-08T12:55:22;100251.53;;;34.42;31.97
2339;BME280;1180;51.438;6.978;2023-07-08T12:57:50;100251.63;;;34.25;30.68
2339;BME280;1180;51.438;6.978;2023-07-08T13:00:39;100249.50;;;34.50;30.55
2339;BME280;1180;51.438;6.978;2023-07-08T13:03:08;100250.34;;;34.55;31.06
2339;BME280;1180;51.438;6.978;2023-07-08T13:05:38;100250.63;;;34.54;31.40
2339;BME280;1180;51.438;6.978;2023-07-08T13:08:05;100248.63;;;34.44;30.21
2339;BME280;1180;51.438;6.978;2023-07-08T13:10:34;100254.63;;;34.34;31.06
2339;BME280;1180;51.438;6.978;2023-07-08T13:13:04;100246.50;;;34.74;30.42
2339;BME280;1180;51.438;6.978;2023-07-08T13:15:35;100238.09;;;34.87;29.21
2339;BME280;1180;51.438;6.978;2023-07-08T13:18:03;100242.56;;;34.76;31.21
2339;BME280;1180;51.438;6.978;2023-07-08T13:20:29;100244.72;;;34.79;30.98
2339;BME280;1180;51.438;6.978;2023-07-08T13:22:59;100255.00;;;34.98;31.79
2339;BME280;1180;51.438;6.978;2023-07-08T13:25:31;100253.72;;;35.06;31.92
2339;BME280;1180;51.438;6.978;2023-07-08T13:28:02;100248.44;;;35.11;30.73
2339;BME280;1180;51.438;6.978;2023-07-08T13:30:39;100253.38;;;35.30;31.04
2339;BME280;1180;51.438;6.978;2023-07-08T13:33:04;100252.97;;;35.48;31.45
2339;BME280;1180;51.438;6.978;2023-07-08T13:35:38;100252.75;;;35.60;30.52
2339;BME280;1180;51.438;6.978;2023-07-08T13:38:05;100255.41;;;35.55;29.85
2339;BME280;1180;51.438;6.978;2023-07-08T13:40:31;100256.94;;;35.46;30.62
2339;BME280;1180;51.438;6.978;2023-07-08T13:42:57;100257.84;;;35.56;30.34
2339;BME280;1180;51.438;6.978;2023-07-08T13:45:26;100255.22;;;35.72;31.53
2339;BME280;1180;51.438;6.978;2023-07-08T13:48:34;100257.25;;;35.49;30.55
2339;BME280;1180;51.438;6.978;2023-07-08T13:51:08;100257.19;;;35.44;28.75
2339;BME280;1180;51.438;6.978;2023-07-08T13:56:11;100250.69;;;35.24;28.95
2339;BME280;1180;51.438;6.978;2023-07-08T13:58:43;100254.28;;;35.46;29.86
2339;BME280;1180;51.438;6.978;2023-07-08T14:01:21;100257.34;;;35.70;29.18
2339;BME280;1180;51.438;6.978;2023-07-08T14:03:47;100254.44;;;35.71;31.09
2339;BME280;1180;51.438;6.978;2023-07-08T14:06:18;100247.28;;;35.82;31.03
2339;BME280;1180;51.438;6.978;2023-07-08T14:08:44;100254.41;;;35.66;30.87
2339;BME280;1180;51.438;6.978;2023-07-08T14:11:10;100255.84;;;35.84;30.21
2339;BME280;1180;51.438;6.978;2023-07-08T14:13:36;100256.13;;;35.93;30.19
2339;BME280;1180;51.438;6.978;2023-07-08T14:16:03;100255.97;;;36.16;31.40
2339;BME280;1180;51.438;6.978;2023-07-08T14:18:32;100251.44;;;36.26;29.56